• Join FlightAware (Why Join?)
  • Login
  • US Flag 
04:21AM EST


 

Airport Tracker/Info


-or-


 

Live Flight TrackerFlight Track Log ✈ N5051S ✈ 14-Aug-2014 ✈ KBGR - KLEW

Flight Track Log - Related Links

Times and Time Zones

All times are in EDT time to prevent confusion due to time zone crossing. See the N5051S flight status page for this flight to view local times or setup timezone preferences in your user account.

Time Position Orientation Groundspeed Altitude Reporting Facility
EDT Latitude Longitude Course Direction KTS MPH feet Rate Location/Type
06:06PM 44.7683 -68.8700 237° Southwest 92 106 3,200  Level Boston Center
06:07PM 44.7517 -68.9008 233° Southwest 94 108 4,000 780 Climbing Boston Center
06:08PM 44.7358 -68.9308 233° Southwest 94 108 4,900 840 Climbing Boston Center
06:09PM 44.6920 -69.0369 227° Southwest  Level FlightAware Approximate
06:09PM 44.7203 -68.9628 236° Southwest 98 113 5,800  Level Boston Center
06:10PM 44.6724 -69.0719 235° Southwest  Level FlightAware Approximate
06:10PM 44.7044 -68.9989 238° Southwest 103 119 6,100  Level Boston Center
06:11PM 44.6831 -69.0408 234° Southwest 124 143 6,100  Level Boston Center
06:12PM 44.6617 -69.0828 234° Southwest 130 150 6,100  Level Boston Center
06:13PM 44.6372 -69.1339 236° Southwest 130 150 6,100  Level Boston Center
06:14PM 44.6181 -69.1736 236° Southwest 128 147 6,100  Level Boston Center
06:15PM 44.5967 -69.2128 233° Southwest 127 146 6,100  Level Boston Center
06:16PM 44.5767 -69.2556 237° Southwest 127 146 6,100  Level Boston Center
06:17PM 44.5567 -69.2950 235° Southwest 127 146 6,100  Level Boston Center
06:18PM 44.5367 -69.3350 235° Southwest 127 146 6,100  Level Boston Center
06:19PM 44.5167 -69.3747 235° Southwest 127 146 6,100 -60 Level Boston Center
06:20PM 44.4967 -69.4161 236° Southwest 127 146 6,000 -240 Descending Boston Center
06:21PM 44.4703 -69.4642 232° Southwest 127 146 5,700 -540 Descending Boston Center
06:22PM 44.4506 -69.5069 237° Southwest 128 147 5,000 -780 Descending Boston Center
06:23PM 44.4272 -69.5486 232° Southwest 130 150 4,200 -780 Descending Boston Center
06:24PM 44.4058 -69.5911 235° Southwest 131 151 3,500 -540 Descending Boston Center
06:25PM 44.3839 -69.6336 234° Southwest 132 152 3,100 -300 Descending Boston Center
06:26PM 44.3578 -69.6839 234° Southwest 132 152 3,000 -60 Descending Boston Center
06:27PM 44.3358 -69.7275 235° Southwest 134 154 3,000  Level Boston Center
06:28PM 44.3136 -69.7700 234° Southwest 134 154 3,000  Level Boston Center
06:29PM 44.2908 -69.8156 235° Southwest 134 154 3,000  Level Boston Center
06:30PM 44.2683 -69.8564 232° Southwest 134 154 3,000  Level Boston Center
06:31PM 44.2458 -69.9019 235° Southwest 134 154 3,000  Level Boston Center
06:32PM 44.2244 -69.9433 234° Southwest 133 153 3,000  Level Boston Center
06:33PM 44.2014 -69.9867 233° Southwest 132 152 3,000  Level Boston Center
06:35PM 44.1811 -70.0264 235° Southwest 130 150 3,000 -180 Level Boston Center
06:36PM 44.1592 -70.0694 235° Southwest 128 147 2,700 -300 Descending Boston Center
06:37PM 44.1381 -70.1097 234° Southwest 128 147 2,500 -180 Descending Boston Center
06:38PM 44.1183 -70.1489 235° Southwest 128 147 2,400 -120 Descending Boston Center